Terminal Aerodrome Forecast
Issued by NWS

Home | Current Version | Previous Version | Text Only | Print | Product List | Glossary Off
Versions: 1 2 3 4 5 6 7 8 9 10 11 12 13 14 15 16 17 18 19 20 21 22 23 24 25 26 27 28 29

000
FTUS44 KTSA 210300 AAE
TAFFYV
TAF AMD
KFYV 210302Z 2103/2124 00000KT 1/4SM FG VV001
      TEMPO 2103/2106 2SM BR SCT002
     FM211600 12002KT 2SM BR SCT250
     FM211800 VRB03KT P6SM FEW250=

USA.gov is the U.S. government's official web portal to all federal, state and local government web resources and services.